createdAt,value
2022-10-31T00:04:24.455Z,824
2022-10-31T00:09:26.070Z,514.37037
2022-10-31T00:14:27.682Z,498.95495
2022-10-31T00:19:29.415Z,494
2022-10-31T00:24:31.042Z,387.16547
2022-10-31T00:29:32.674Z,310.66667
2022-10-31T00:34:34.401Z,417.84615
2022-10-31T00:39:36.034Z,380.87943
2022-10-31T00:44:37.619Z,444.81301
2022-10-31T00:49:39.386Z,421.51938
2022-10-31T00:54:40.993Z,371.77778
2022-10-31T00:59:42.596Z,304.23392
2022-10-31T01:04:44.238Z,284.33149
2022-10-31T01:09:45.892Z,319.60976
2022-10-31T01:14:47.491Z,453.09091
2022-10-31T01:19:49.160Z,417.84615
2022-10-31T01:24:50.798Z,354.66667
2022-10-31T01:29:52.582Z,273.41176
2022-10-31T01:34:54.123Z,255.11111
2022-10-31T01:39:55.723Z,333.87342
2022-10-31T01:44:57.315Z,357.42282
2022-10-31T01:49:59.045Z,306.35294
2022-10-31T01:55:00.634Z,264.83333
2022-10-31T02:00:02.250Z,336.35669
2022-10-31T02:05:03.828Z,363.04762
2022-10-31T02:10:05.437Z,368.82759
2022-10-31T02:15:07.062Z,417.84615
2022-10-31T02:20:08.743Z,377.80282
2022-10-31T02:25:10.656Z,317.33333
2022-10-31T02:30:12.318Z,288.13408
2022-10-31T02:35:13.958Z,363.04762
2022-10-31T02:40:15.631Z,253.54774
2022-10-31T02:45:17.247Z,173.85075
2022-10-31T02:50:18.970Z,172.14815
2022-10-31T02:55:20.696Z,256.69036
2022-10-31T03:00:22.330Z,217.77778
2022-10-31T03:05:24.013Z,253.54774
2022-10-31T03:10:25.653Z,290.06742
2022-10-31T03:15:27.270Z,319.60976
2022-10-31T03:20:28.895Z,341.41935
2022-10-31T03:25:30.588Z,400.2963
2022-10-31T03:30:32.213Z,421.51938
2022-10-31T03:35:33.900Z,333.87342
2022-10-31T03:40:35.492Z,407.15789
2022-10-31T03:45:37.144Z,351.94702
2022-10-31T03:50:38.829Z,268.21053
2022-10-31T03:55:40.463Z,319.60976
2022-10-31T04:00:42.161Z,346.61438
2022-10-31T04:05:43.894Z,302.13953
2022-10-31T04:10:45.487Z,341.41935
2022-10-31T04:15:47.124Z,235.94313
2022-10-31T04:20:48.788Z,189.41833
2022-10-31T04:25:50.522Z,187.47826
2022-10-31T04:30:52.246Z,217.77778
2022-10-31T04:35:53.996Z,206.12766
2022-10-31T04:40:55.659Z,201.74059
2022-10-31T04:45:57.535Z,258.28571
2022-10-31T04:51:00.305Z,192.3871
2022-10-31T04:56:01.965Z,172.99628
2022-10-31T05:01:03.916Z,153.52381
2022-10-31T05:06:05.713Z,210.66667
2022-10-31T05:11:07.628Z,148.65116
2022-10-31T05:16:09.318Z,160.14035
2022-10-31T05:21:10.939Z,154.23891
2022-10-31T05:26:12.551Z,165.58273
2022-10-31T05:31:14.127Z,152.10811
2022-10-31T05:36:15.821Z,168
2022-10-31T05:41:17.406Z,179.1145
2022-10-31T05:46:18.961Z,140.17834
2022-10-31T05:51:20.576Z,118.50425
2022-10-31T05:56:22.161Z,110.48649
2022-10-31T06:01:24.089Z,105.25654
2022-10-31T06:06:25.764Z,144
2022-10-31T06:11:27.345Z,147.97351
2022-10-31T06:16:28.911Z,177.33333
2022-10-31T06:21:30.763Z,169.64103
2022-10-31T06:26:32.359Z,229.18519
2022-10-31T06:31:34.903Z,189.41833
2022-10-31T06:36:36.693Z,180.01533
2022-10-31T06:41:38.293Z,148.65116
2022-10-31T06:46:39.890Z,158.63415
2022-10-31T06:51:41.501Z,146.63158
2022-10-31T06:56:43.131Z,116.54902
2022-10-31T07:01:44.833Z,119.49858
2022-10-31T07:06:51.662Z,134.12346
2022-10-31T07:11:53.579Z,108.70588
2022-10-31T07:16:55.217Z,108.26667
2022-10-31T07:21:56.827Z,135.90031
2022-10-31T07:32:00.098Z,150.02007
2022-10-31T07:37:01.700Z,112.30601
2022-10-31T07:42:03.338Z,95.35135
2022-10-31T07:47:05.023Z,93.87835
2022-10-31T07:52:06.784Z,123.59184
2022-10-31T07:57:08.406Z,133.53846
2022-10-31T08:02:10.095Z,121.01149
2022-10-31T08:07:11.758Z,139.55556
2022-10-31T08:12:13.415Z,172.14815
2022-10-31T08:17:15.120Z,150.71141
2022-10-31T08:22:16.744Z,145.96721
2022-10-31T08:27:18.456Z,160.14035
2022-10-31T08:32:20.076Z,167.18841
2022-10-31T08:37:21.689Z,159.38462
2022-10-31T08:42:23.334Z,164.78853
2022-10-31T08:47:25.101Z,154.23891
2022-10-31T08:52:51.168Z,153.52381
2022-10-31T08:58:01.136Z,110.48649
2022-10-31T09:03:02.979Z,99.55556
2022-10-31T09:08:04.903Z,106.96296
2022-10-31T09:13:06.697Z,129.54217
2022-10-31T09:18:08.308Z,152.10811
2022-10-31T09:23:09.876Z,168.81752
2022-10-31T09:28:11.489Z,166.38267
2022-10-31T09:33:13.114Z,142.07074
2022-10-31T09:38:15.388Z,138.93671
2022-10-31T09:43:16.986Z,155.68385
2022-10-31T09:48:18.612Z,135.30435
2022-10-31T09:53:20.241Z,106.10526
2022-10-31T09:58:21.856Z,126.78932
2022-10-31T10:03:23.511Z,168.81752
2022-10-31T10:08:25.152Z,186.51969
2022-10-31T10:13:26.788Z,173.85075
2022-10-31T10:18:28.392Z,162.43972
2022-10-31T10:23:30.025Z,155.68385
2022-10-31T10:28:31.788Z,138.32177
2022-10-31T10:33:33.386Z,136.5
2022-10-31T10:38:35.145Z,130.10272
2022-10-31T10:43:36.947Z,146.63158
2022-10-31T10:48:38.681Z,169.64103
2022-10-31T10:53:40.284Z,173.85075
2022-10-31T10:58:41.888Z,166.38267
2022-10-31T11:03:43.711Z,157.14879
2022-10-31T11:08:45.342Z,144
2022-10-31T11:13:46.983Z,160.14035
2022-10-31T11:18:48.839Z,163.21708
2022-10-31T11:23:50.451Z,298.02299
2022-10-31T11:28:52.034Z,344
2022-10-31T11:33:53.755Z,317.33333
2022-10-31T11:38:55.425Z,275.1828
2022-10-31T11:43:57.032Z,275.1828
2022-10-31T11:48:58.597Z,310.66667
2022-10-31T11:54:02.938Z,321.91411
2022-10-31T11:59:05.191Z,414.22901
2022-10-31T12:04:06.917Z,421.51938
2022-10-31T12:09:08.494Z,440.77419
2022-10-31T12:14:10.140Z,371.77778
2022-10-31T12:19:11.724Z,566.22222
2022-10-31T12:24:13.316Z,504
2022-10-31T12:29:14.968Z,489.13274
2022-10-31T12:34:16.687Z,498.95495
2022-10-31T12:39:18.409Z,579.05155
2022-10-31T12:44:20.023Z,425.25
2022-10-31T12:49:21.635Z,326.6087
2022-10-31T12:54:23.234Z,393.63504
2022-10-31T12:59:24.888Z,354.66667
2022-10-31T13:04:26.447Z,396.94118
2022-10-31T13:09:28.123Z,414.22901
2022-10-31T13:14:29.716Z,333.87342
2022-10-31T13:19:31.338Z,319.60976
2022-10-31T13:24:32.918Z,333.87342
2022-10-31T13:29:34.541Z,336.35669
2022-10-31T13:34:36.249Z,360.21622
2022-10-31T13:39:37.812Z,346.61438
2022-10-31T13:44:39.408Z,276.97297
2022-10-31T13:49:41.098Z,292.0226
2022-10-31T13:54:42.746Z,282.46154
2022-10-31T13:59:44.394Z,211.82609
2022-10-31T14:04:46.164Z,250.46766
2022-10-31T14:09:47.881Z,226.56881
2022-10-31T14:14:49.531Z,219
2022-10-31T14:19:51.142Z,203.91561
2022-10-31T14:24:52.767Z,196.45902
2022-10-31T14:29:54.390Z,156.41379
2022-10-31T14:34:56.068Z,149.33333
2022-10-31T14:39:57.689Z,171.30627
2022-10-31T14:44:59.371Z,188.44444
2022-10-31T14:50:01.071Z,198.54545
2022-10-31T14:55:03.048Z,224
2022-10-31T15:00:04.665Z,176.45283
2022-10-31T15:05:06.304Z,140.17834
2022-10-31T15:10:08.007Z,134.71207
2022-10-31T15:15:09.738Z,177.33333
2022-10-31T15:20:11.487Z,147.97351
2022-10-31T15:25:13.189Z,144.65147
2022-10-31T15:30:14.862Z,130.10272
2022-10-31T15:35:16.492Z,137.71069
2022-10-31T15:40:18.257Z,244.4878
2022-10-31T15:45:20.025Z,414.22901
2022-10-31T15:50:21.774Z,336.35669
2022-10-31T15:55:23.433Z,273.41176
2022-10-31T16:00:25.112Z,284.33149
2022-10-31T16:05:26.793Z,292.0226
2022-10-31T16:10:28.443Z,258.28571
2022-10-31T16:15:30.101Z,253.54774
2022-10-31T16:20:31.748Z,198.54545
2022-10-31T16:25:33.359Z,220.23318
2022-10-31T16:30:35.115Z,255.11111
2022-10-31T16:35:36.846Z,263.17098
2022-10-31T16:40:38.466Z,250.46766
2022-10-31T16:45:40.128Z,203.91561
2022-10-31T16:50:41.798Z,190.4
2022-10-31T16:55:43.458Z,290.06742
2022-10-31T17:00:45.222Z,276.97297
2022-10-31T17:05:46.895Z,296
2022-10-31T17:10:48.585Z,278.78261
2022-10-31T17:15:50.224Z,258.28571
2022-10-31T17:20:51.823Z,278.78261
2022-10-31T17:25:53.720Z,225.27854
2022-10-31T17:30:55.358Z,253.54774
2022-10-31T17:35:57.043Z,188.44444
2022-10-31T17:40:58.661Z,154.9589
2022-10-31T17:46:00.354Z,192.3871
2022-10-31T17:51:02.019Z,212.99563
2022-10-31T17:56:03.831Z,243.02913
2022-10-31T18:01:05.731Z,252
2022-10-31T18:06:07.497Z,280.61202
2022-10-31T18:11:09.178Z,250.46766
2022-10-31T18:16:11.123Z,243.02913
2022-10-31T18:21:12.825Z,248.9505
2022-10-31T18:26:14.706Z,275.1828
2022-10-31T18:31:16.401Z,284.33149
2022-10-31T18:36:18.025Z,284.33149
2022-10-31T18:41:19.628Z,264.83333
2022-10-31T18:46:21.317Z,215.36564
2022-10-31T18:51:22.930Z,170.47059
2022-10-31T18:56:24.580Z,128.98498
2022-10-31T19:01:26.321Z,120.5043
2022-10-31T19:06:27.988Z,168.81752
2022-10-31T19:11:29.614Z,156.41379
2022-10-31T19:16:31.302Z,140.80511
2022-10-31T19:21:32.993Z,131.80488
2022-10-31T19:26:34.651Z,118.50425
2022-10-31T19:31:36.350Z,116.06704
2022-10-31T19:36:37.983Z,138.93671
2022-10-31T19:41:39.713Z,134.71207
2022-10-31T19:46:52.823Z,163.21708
2022-10-31T19:51:55.591Z,139.55556
2022-10-31T19:56:57.253Z,130.66667
2022-10-31T20:01:58.886Z,137.10345
2022-10-31T20:07:00.621Z,142.07074
2022-10-31T20:12:02.303Z,131.23404
2022-10-31T20:17:03.939Z,140.80511
2022-10-31T20:22:05.759Z,168
2022-10-31T20:27:07.590Z,222.73303
2022-10-31T20:32:09.243Z,206.12766
2022-10-31T20:37:10.896Z,271.65957
2022-10-31T20:42:12.546Z,312.86228
2022-10-31T20:47:14.213Z,288.13408
2022-10-31T20:52:15.904Z,333.87342
2022-10-31T20:57:17.544Z,341.41935
2022-10-31T21:02:19.340Z,292.0226
2022-10-31T21:07:21.060Z,266.51309
2022-10-31T21:12:22.678Z,421.51938
2022-10-31T21:17:24.294Z,365.91781
2022-10-31T21:22:25.908Z,410.66667
2022-10-31T21:27:27.537Z,417.84615
2022-10-31T21:32:29.205Z,380.87943
2022-10-31T21:37:30.825Z,421.51938
2022-10-31T21:42:32.458Z,396.94118
2022-10-31T21:47:34.116Z,390.37681
2022-10-31T21:52:36.032Z,290.06742
2022-10-31T21:57:37.679Z,250.46766
2022-10-31T22:02:39.316Z,294
2022-10-31T22:07:40.866Z,315.08434
2022-10-31T22:12:42.501Z,329
2022-10-31T22:17:44.117Z,282.46154
2022-10-31T22:22:45.768Z,284.33149
2022-10-31T22:27:47.433Z,290.06742
2022-10-31T22:32:49.202Z,280.61202
2022-10-31T22:37:50.807Z,245.96078
2022-10-31T22:42:52.416Z,319.60976
2022-10-31T22:47:54.082Z,286.22222
2022-10-31T22:52:55.790Z,298.02299
2022-10-31T22:57:57.421Z,224
2022-10-31T23:02:59.040Z,164
2022-10-31T23:08:01.006Z,250.46766
2022-10-31T23:13:02.913Z,349.26316
2022-10-31T23:18:08.196Z,363.04762
2022-10-31T23:23:16.228Z,387.16547
2022-10-31T23:28:17.884Z,306.35294
2022-10-31T23:33:19.531Z,237.33333
2022-10-31T23:38:21.167Z,196.45902
2022-10-31T23:43:22.815Z,182.75969
2022-10-31T23:48:24.483Z,172.14815
2022-10-31T23:53:26.188Z,190.4
2022-10-31T23:58:27.858Z,177.33333
